Time;durP1;ratioP1;P1;durP2;ratioP2;P2;SDS_P1;SDS_P2;PMS_P1;PMS_P2;Temp;Humidity;BMP_temperature;BMP_pressure;BME280_temperature;BME280_humidity;BME280_pressure;Samples;Min_cycle;Max_cycle;Signal;HPM_P1;HPM_P2
2023/03/17 00:02:51;;;;;;;5.40;3.20;;;;;;;;;;4974329;28;20609;-87
2023/03/17 00:05:57;;;;;;;4.20;2.50;;;;;;;;;;4974136;28;21090;-87
2023/03/17 00:09:01;;;;;;;3.67;3.10;;;;;;;;;;4973838;28;20652;-87
2023/03/17 00:12:09;;;;;;;2.90;2.47;;;;;;;;;;4973494;28;20609;-87
2023/03/17 00:15:13;;;;;;;4.50;3.10;;;;;;;;;;4974306;28;20900;-87
2023/03/17 00:18:19;;;;;;;3.40;2.80;;;;;;;;;;4962857;28;20541;-87
2023/03/17 00:21:29;;;;;;;4.27;2.40;;;;;;;;;;4973659;28;20624;-87
2023/03/17 00:24:33;;;;;;;4.27;2.50;;;;;;;;;;4974129;28;20546;-87
2023/03/17 00:27:37;;;;;;;3.30;2.60;;;;;;;;;;4962579;28;20541;-87
2023/03/17 00:30:42;;;;;;;3.57;2.57;;;;;;;;;;4973040;28;21022;-87
2023/03/17 00:33:48;;;;;;;2.80;2.20;;;;;;;;;;4973137;28;20608;-87
2023/03/17 00:36:52;;;;;;;2.70;2.50;;;;;;;;;;4973351;28;20608;-87
2023/03/17 00:39:56;;;;;;;9.53;3.10;;;;;;;;;;4984352;28;21200;-87
2023/03/17 00:43:03;;;;;;;4.97;2.37;;;;;;;;;;4974029;28;21098;-88
2023/03/17 00:46:34;;;;;;;2.57;2.20;;;;;;;;;;4962378;28;20553;-87
2023/03/17 00:49:47;;;;;;;3.50;2.63;;;;;;;;;;4973916;28;20652;-87
2023/03/17 00:52:53;;;;;;;2.73;2.10;;;;;;;;;;4984184;28;21157;-87
2023/03/17 00:55:58;;;;;;;3.63;2.20;;;;;;;;;;4972947;28;20605;-87
2023/03/17 00:59:02;;;;;;;2.87;2.53;;;;;;;;;;4973060;28;20554;-87
2023/03/17 01:02:10;;;;;;;3.37;2.33;;;;;;;;;;4973069;28;20604;-87
2023/03/17 01:05:15;;;;;;;4.40;2.30;;;;;;;;;;4972861;28;20542;-87
2023/03/17 01:08:21;;;;;;;3.43;2.40;;;;;;;;;;4973178;28;21071;-87
2023/03/17 01:11:25;;;;;;;2.97;2.20;;;;;;;;;;5010953;23;20692;-84
2023/03/17 01:14:29;;;;;;;5.40;2.53;;;;;;;;;;4973266;28;20549;-84
2023/03/17 01:17:33;;;;;;;3.53;2.60;;;;;;;;;;4972872;28;20550;-84
2023/03/17 01:20:38;;;;;;;3.90;2.60;;;;;;;;;;4985095;28;20616;-84
2023/03/17 01:23:42;;;;;;;3.20;2.37;;;;;;;;;;4973097;28;20601;-84
2023/03/17 01:26:47;;;;;;;3.27;2.37;;;;;;;;;;4984111;28;20558;-84
2023/03/17 01:29:53;;;;;;;3.43;2.57;;;;;;;;;;4984274;28;20660;-84
2023/03/17 01:32:57;;;;;;;4.47;2.40;;;;;;;;;;4984188;28;20557;-84
2023/03/17 01:36:02;;;;;;;4.20;2.70;;;;;;;;;;4995298;28;20930;-84
2023/03/17 01:39:06;;;;;;;2.40;1.90;;;;;;;;;;4983810;28;20608;-84
2023/03/17 01:42:10;;;;;;;3.50;2.10;;;;;;;;;;4995609;28;20604;-83
2023/03/17 01:45:52;;;;;;;3.80;2.70;;;;;;;;;;5005855;28;20537;-84
2023/03/17 01:49:26;;;;;;;2.47;2.20;;;;;;;;;;4994524;28;20914;-84
2023/03/17 01:52:33;;;;;;;2.60;2.40;;;;;;;;;;4995270;28;20541;-84
2023/03/17 01:55:37;;;;;;;4.23;2.57;;;;;;;;;;4983455;28;21007;-84
2023/03/17 01:58:44;;;;;;;4.83;2.77;;;;;;;;;;4983314;28;20542;-84
2023/03/17 02:01:53;;;;;;;2.60;2.40;;;;;;;;;;4972361;28;20617;-83
2023/03/17 02:04:58;;;;;;;4.50;2.33;;;;;;;;;;4994662;28;20605;-84
2023/03/17 02:08:10;;;;;;;3.37;2.60;;;;;;;;;;4994223;28;20538;-84
2023/03/17 02:11:14;;;;;;;3.67;2.50;;;;;;;;;;4982875;28;20660;-84
2023/03/17 02:14:19;;;;;;;3.27;2.27;;;;;;;;;;4972550;28;21093;-84
2023/03/17 02:17:25;;;;;;;4.73;2.50;;;;;;;;;;4972264;28;20550;-84
2023/03/17 02:20:29;;;;;;;3.53;2.30;;;;;;;;;;4995114;28;20617;-84
2023/03/17 02:23:34;;;;;;;2.73;2.27;;;;;;;;;;4972798;28;20596;-84
2023/03/17 02:26:38;;;;;;;3.43;2.50;;;;;;;;;;5005139;28;20609;-84
2023/03/17 02:29:45;;;;;;;4.53;2.43;;;;;;;;;;4976934;28;20601;-84
2023/03/17 02:32:49;;;;;;;3.37;2.67;;;;;;;;;;5011120;28;20553;-84
2023/03/17 02:35:53;;;;;;;3.70;2.40;;;;;;;;;;4999626;28;20542;-84
2023/03/17 02:38:58;;;;;;;2.70;2.40;;;;;;;;;;4988456;28;20596;-84
2023/03/17 02:42:07;;;;;;;2.97;2.27;;;;;;;;;;4987204;28;20550;-84
2023/03/17 02:45:13;;;;;;;6.70;2.87;;;;;;;;;;4984851;28;20541;-84
2023/03/17 02:48:17;;;;;;;4.00;2.60;;;;;;;;;;4982528;28;20553;-84
2023/03/17 02:51:21;;;;;;;3.13;2.70;;;;;;;;;;4982668;28;20660;-84
2023/03/17 02:54:26;;;;;;;3.70;2.83;;;;;;;;;;4993772;28;20601;-84
2023/03/17 02:57:29;;;;;;;3.70;2.50;;;;;;;;;;4982782;28;20601;-84
2023/03/17 03:00:34;;;;;;;3.17;2.67;;;;;;;;;;4994220;28;20629;-84
2023/03/17 03:03:39;;;;;;;5.60;2.30;;;;;;;;;;4997974;28;20925;-84
2023/03/17 03:06:43;;;;;;;3.03;2.57;;;;;;;;;;4987164;28;21077;-84
2023/03/17 03:09:47;;;;;;;4.50;2.73;;;;;;;;;;4997423;28;20593;-84
2023/03/17 03:12:52;;;;;;;3.23;2.43;;;;;;;;;;4986321;28;20549;-84
2023/03/17 03:15:56;;;;;;;4.07;2.43;;;;;;;;;;4986306;28;20608;-84
2023/03/17 03:19:00;;;;;;;5.07;2.63;;;;;;;;;;4986122;28;21097;-84
2023/03/17 03:22:05;;;;;;;2.50;2.30;;;;;;;;;;4975157;28;20530;-84
2023/03/17 03:25:09;;;;;;;2.93;2.50;;;;;;;;;;4986201;28;20561;-84
2023/03/17 03:28:13;;;;;;;3.80;2.30;;;;;;;;;;4986657;28;20546;-84
2023/03/17 03:31:17;;;;;;;3.23;2.50;;;;;;;;;;4974898;28;20648;-84
2023/03/17 03:34:21;;;;;;;3.37;2.40;;;;;;;;;;4975041;28;20974;-84
2023/03/17 03:37:25;;;;;;;3.63;2.70;;;;;;;;;;4986442;28;20554;-84
2023/03/17 03:40:30;;;;;;;5.73;2.60;;;;;;;;;;4974720;28;21184;-84
2023/03/17 03:43:34;;;;;;;4.67;2.50;;;;;;;;;;4985554;28;20550;-84
2023/03/17 03:46:39;;;;;;;3.73;2.50;;;;;;;;;;4974833;28;20545;-84
2023/03/17 03:49:43;;;;;;;6.07;2.77;;;;;;;;;;4985468;28;20965;-84
2023/03/17 03:52:47;;;;;;;6.23;3.13;;;;;;;;;;4997079;28;20550;-84
2023/03/17 03:55:51;;;;;;;2.43;2.13;;;;;;;;;;4974755;28;20546;-84
2023/03/17 03:58:56;;;;;;;3.20;2.67;;;;;;;;;;4974038;28;20565;-84
2023/03/17 04:02:00;;;;;;;3.60;2.90;;;;;;;;;;4985212;28;20538;-83
2023/03/17 04:05:06;;;;;;;5.73;2.60;;;;;;;;;;4974429;28;20541;-84
2023/03/17 04:08:10;;;;;;;5.73;2.87;;;;;;;;;;5007279;28;20537;-84
2023/03/17 04:11:14;;;;;;;4.43;2.87;;;;;;;;;;4974274;28;21236;-84
2023/03/17 04:14:18;;;;;;;4.00;2.60;;;;;;;;;;4973864;28;20549;-84
2023/03/17 04:17:22;;;;;;;3.37;2.60;;;;;;;;;;4996759;28;20609;-84
2023/03/17 04:20:27;;;;;;;4.37;2.73;;;;;;;;;;4991547;28;20629;-84
2023/03/17 04:23:31;;;;;;;3.20;2.70;;;;;;;;;;4991078;28;20545;-84
2023/03/17 04:26:35;;;;;;;4.50;3.10;;;;;;;;;;4990483;28;20553;-84
2023/03/17 04:29:41;;;;;;;3.03;2.43;;;;;;;;;;4990577;28;20557;-84
2023/03/17 04:32:46;;;;;;;5.73;2.73;;;;;;;;;;4989530;28;20547;-84
2023/03/17 04:35:51;;;;;;;2.73;2.43;;;;;;;;;;4997330;28;20961;-84
2023/03/17 04:38:55;;;;;;;3.63;2.90;;;;;;;;;;4984765;28;20541;-84
2023/03/17 04:41:59;;;;;;;4.73;2.83;;;;;;;;;;4984745;28;20546;-84
2023/03/17 04:45:05;;;;;;;7.43;2.90;;;;;;;;;;4973330;28;20982;-84
2023/03/17 04:48:09;;;;;;;3.80;2.60;;;;;;;;;;4984414;28;20911;-84
2023/03/17 04:51:14;;;;;;;3.07;2.67;;;;;;;;;;4995710;28;20656;-84
2023/03/17 04:54:18;;;;;;;3.67;2.57;;;;;;;;;;4996007;28;20601;-84
2023/03/17 04:57:23;;;;;;;4.53;2.80;;;;;;;;;;4973339;28;20612;-84
2023/03/17 05:00:27;;;;;;;2.53;2.30;;;;;;;;;;4973209;28;20628;-84
2023/03/17 05:03:32;;;;;;;7.40;2.43;;;;;;;;;;5007072;28;20918;-84
2023/03/17 05:06:36;;;;;;;4.03;2.73;;;;;;;;;;4973096;28;20550;-84
2023/03/17 05:09:40;;;;;;;4.93;2.60;;;;;;;;;;4984134;28;20929;-84
2023/03/17 05:12:44;;;;;;;4.83;2.70;;;;;;;;;;4995280;28;20539;-84
2023/03/17 05:15:50;;;;;;;3.83;2.67;;;;;;;;;;4973355;28;20554;-84
2023/03/17 05:18:54;;;;;;;3.37;2.43;;;;;;;;;;4972664;28;20558;-84
2023/03/17 05:21:58;;;;;;;3.53;2.83;;;;;;;;;;4984662;28;20538;-84
2023/03/17 05:25:03;;;;;;;4.20;2.77;;;;;;;;;;4982920;28;20601;-84
2023/03/17 05:28:08;;;;;;;4.43;2.70;;;;;;;;;;4995660;28;20917;-84
2023/03/17 05:31:12;;;;;;;3.87;2.60;;;;;;;;;;4972504;28;21021;-84
2023/03/17 05:34:16;;;;;;;4.03;2.90;;;;;;;;;;4973010;28;20550;-84
2023/03/17 05:37:21;;;;;;;2.97;2.57;;;;;;;;;;4984193;28;20541;-84
2023/03/17 05:40:26;;;;;;;5.53;3.00;;;;;;;;;;4983566;28;20637;-84
2023/03/17 05:43:32;;;;;;;3.43;2.57;;;;;;;;;;4994421;28;20542;-84
2023/03/17 05:46:36;;;;;;;3.40;2.63;;;;;;;;;;4983818;28;20553;-84
2023/03/17 05:49:41;;;;;;;4.47;2.80;;;;;;;;;;4983376;28;21097;-84
2023/03/17 05:52:46;;;;;;;5.17;3.17;;;;;;;;;;4972575;28;20593;-84
2023/03/17 05:55:51;;;;;;;4.83;2.50;;;;;;;;;;4972094;28;20613;-84
2023/03/17 05:58:55;;;;;;;4.33;3.00;;;;;;;;;;4972129;28;20605;-84
2023/03/17 06:02:00;;;;;;;2.93;2.40;;;;;;;;;;4994253;28;20605;-84
2023/03/17 06:05:05;;;;;;;5.60;2.77;;;;;;;;;;4971896;28;20593;-84
2023/03/17 06:08:09;;;;;;;5.43;3.10;;;;;;;;;;4999234;28;20545;-85
2023/03/17 06:11:13;;;;;;;7.37;3.63;;;;;;;;;;4998180;28;20664;-85
2023/03/17 06:14:18;;;;;;;3.57;2.70;;;;;;;;;;4974605;28;20545;-85
2023/03/17 06:17:23;;;;;;;6.93;3.50;;;;;;;;;;4996372;28;20553;-85
2023/03/17 06:20:27;;;;;;;5.97;3.93;;;;;;;;;;4985136;28;20640;-85
2023/03/17 06:23:31;;;;;;;3.67;2.87;;;;;;;;;;4974750;28;20541;-85
2023/03/17 06:26:36;;;;;;;5.57;3.50;;;;;;;;;;4971825;28;20566;-85
2023/03/17 06:29:40;;;;;;;3.33;2.70;;;;;;;;;;4983071;28;20546;-84
2023/03/17 06:32:44;;;;;;;3.83;2.73;;;;;;;;;;4982878;28;20605;-84
2023/03/17 06:35:48;;;;;;;8.87;3.90;;;;;;;;;;5005657;28;20906;-84
2023/03/17 06:38:52;;;;;;;4.83;3.57;;;;;;;;;;4983340;28;20545;-84
2023/03/17 06:41:57;;;;;;;4.20;3.13;;;;;;;;;;4971643;28;20550;-84
2023/03/17 06:45:02;;;;;;;3.93;3.10;;;;;;;;;;4983315;28;20545;-83
2023/03/17 06:48:07;;;;;;;8.63;3.50;;;;;;;;;;4982660;28;20558;-84
2023/03/17 06:51:11;;;;;;;3.60;2.80;;;;;;;;;;4982460;28;20652;-84
2023/03/17 06:54:17;;;;;;;3.63;2.80;;;;;;;;;;4982952;28;20545;-84
2023/03/17 06:57:22;;;;;;;8.17;3.63;;;;;;;;;;4982529;28;20689;-83
2023/03/17 07:00:26;;;;;;;5.03;3.13;;;;;;;;;;4971279;28;20628;-84
2023/03/17 07:03:31;;;;;;;8.53;3.17;;;;;;;;;;4971026;28;20563;-83
2023/03/17 07:06:36;;;;;;;4.20;2.70;;;;;;;;;;4971269;28;20186;-84
2023/03/17 07:09:40;;;;;;;4.97;2.80;;;;;;;;;;5004503;28;20638;-85
2023/03/17 07:12:44;;;;;;;3.70;2.70;;;;;;;;;;4994133;28;20218;-84
2023/03/17 07:15:49;;;;;;;5.77;2.57;;;;;;;;;;4993143;28;20182;-84
2023/03/17 07:18:54;;;;;;;4.23;2.70;;;;;;;;;;4993255;28;20178;-83
2023/03/17 07:21:58;;;;;;;3.70;2.50;;;;;;;;;;4971515;28;20178;-84
2023/03/17 07:25:03;;;;;;;3.73;2.60;;;;;;;;;;4982896;28;20183;-83
2023/03/17 07:28:07;;;;;;;4.30;2.87;;;;;;;;;;4983646;28;20542;-84
2023/03/17 07:31:13;;;;;;;3.93;2.83;;;;;;;;;;4971982;28;20229;-84
2023/03/17 07:34:17;;;;;;;7.37;2.60;;;;;;;;;;5005402;28;20574;-84
2023/03/17 07:37:21;;;;;;;3.40;2.20;;;;;;;;;;4982731;28;20182;-84
2023/03/17 07:40:25;;;;;;;5.73;2.50;;;;;;;;;;4971030;28;20214;-84
2023/03/17 07:43:29;;;;;;;4.07;2.30;;;;;;;;;;4993364;28;20174;-84
2023/03/17 07:46:33;;;;;;;3.03;2.43;;;;;;;;;;4982200;28;20186;-85
2023/03/17 07:49:38;;;;;;;3.97;2.43;;;;;;;;;;4997532;28;20639;-84
2023/03/17 07:52:42;;;;;;;3.17;2.17;;;;;;;;;;4997685;28;20206;-85
2023/03/17 07:55:46;;;;;;;6.97;2.47;;;;;;;;;;4976400;28;20566;-84
2023/03/17 07:58:50;;;;;;;3.57;2.70;;;;;;;;;;4992065;28;20186;-85
2023/03/17 08:01:56;;;;;;;3.30;2.30;;;;;;;;;;4979900;28;20174;-83
2023/03/17 08:05:02;;;;;;;3.20;2.17;;;;;;;;;;4998775;28;20206;-84
2023/03/17 08:08:06;;;;;;;2.60;2.20;;;;;;;;;;4997913;28;20197;-82
2023/03/17 08:11:11;;;;;;;4.83;2.73;;;;;;;;;;4976181;28;20217;-82
2023/03/17 08:14:15;;;;;;;5.70;2.20;;;;;;;;;;4997400;28;20182;-82
2023/03/17 08:17:19;;;;;;;3.90;2.30;;;;;;;;;;4985526;28;20174;-82
2023/03/17 08:20:24;;;;;;;3.93;2.30;;;;;;;;;;4995698;28;20230;-82
2023/03/17 08:23:28;;;;;;;5.10;2.20;;;;;;;;;;5007901;28;20175;-83
2023/03/17 08:26:33;;;;;;;4.13;2.40;;;;;;;;;;4996256;28;20178;-82
2023/03/17 08:29:37;;;;;;;3.97;2.30;;;;;;;;;;4974240;28;20182;-83
2023/03/17 08:32:41;;;;;;;3.23;2.03;;;;;;;;;;4973604;28;20210;-83
2023/03/17 08:35:45;;;;;;;3.07;1.97;;;;;;;;;;4996808;28;20559;-84
2023/03/17 08:38:50;;;;;;;4.23;2.33;;;;;;;;;;4985061;28;20182;-84
2023/03/17 08:41:54;;;;;;;5.30;2.27;;;;;;;;;;4996143;28;20559;-83
2023/03/17 08:44:58;;;;;;;3.73;2.50;;;;;;;;;;4973496;28;20178;-83
2023/03/17 08:48:03;;;;;;;4.40;2.97;;;;;;;;;;4973748;28;20544;-83
2023/03/17 08:51:08;;;;;;;4.23;2.80;;;;;;;;;;4984827;28;20562;-83
2023/03/17 08:54:12;;;;;;;6.00;3.50;;;;;;;;;;4995910;28;20179;-83
2023/03/17 08:57:16;;;;;;;8.43;5.63;;;;;;;;;;4974045;28;20178;-83
2023/03/17 09:00:21;;;;;;;5.30;2.90;;;;;;;;;;4996373;28;20217;-83
2023/03/17 09:03:26;;;;;;;2.93;2.03;;;;;;;;;;4974315;28;20186;-85
2023/03/17 09:06:31;;;;;;;3.73;2.10;;;;;;;;;;4984855;28;20183;-84
2023/03/17 09:09:36;;;;;;;4.17;2.70;;;;;;;;;;4995477;28;20630;-83
2023/03/17 09:12:41;;;;;;;3.70;2.27;;;;;;;;;;4995844;28;20214;-84
2023/03/17 09:15:45;;;;;;;4.30;2.70;;;;;;;;;;4984996;28;20186;-82
2023/03/17 09:18:50;;;;;;;4.53;2.67;;;;;;;;;;4984367;28;20635;-81
2023/03/17 09:21:54;;;;;;;4.23;2.50;;;;;;;;;;4984626;28;20508;-81
2023/03/17 09:24:59;;;;;;;2.80;1.70;;;;;;;;;;4995640;28;20520;-81
2023/03/17 09:28:06;;;;;;;4.53;1.83;;;;;;;;;;4984757;28;20524;-81
2023/03/17 09:31:11;;;;;;;3.07;1.80;;;;;;;;;;4995939;28;20221;-82
2023/03/17 09:34:15;;;;;;;3.83;2.20;;;;;;;;;;4995648;28;20183;-82
2023/03/17 09:37:20;;;;;;;4.40;2.40;;;;;;;;;;4996119;28;20178;-82
2023/03/17 09:40:31;;;;;;;2.67;2.00;;;;;;;;;;4984462;28;20222;-81
2023/03/17 09:44:15;;;;;;;3.33;1.87;;;;;;;;;;4984998;28;20186;-85
2023/03/17 09:47:46;;;;;;;5.30;2.80;;;;;;;;;;5003209;28;20187;-84
2023/03/17 09:50:56;;;;;;;4.07;2.67;;;;;;;;;;4997549;28;20218;-84
2023/03/17 09:54:03;;;;;;;6.93;3.00;;;;;;;;;;4986596;28;20171;-84
2023/03/17 09:57:35;;;;;;;5.03;3.07;;;;;;;;;;4986796;28;20174;-83
2023/03/17 10:00:39;;;;;;;6.27;3.20;;;;;;;;;;4997285;28;20221;-84
2023/03/17 10:03:43;;;;;;;4.67;3.00;;;;;;;;;;4986102;28;20182;-88
2023/03/17 10:06:48;;;;;;;9.27;2.90;;;;;;;;;;4965985;28;20187;-82
2023/03/17 10:10:04;;;;;;;3.17;2.70;;;;;;;;;;4976172;28;20226;-87
2023/03/17 10:13:46;;;;;;;3.83;2.30;;;;;;;;;;4965476;28;20215;-83
2023/03/17 10:16:56;;;;;;;2.87;2.03;;;;;;;;;;4988329;28;20181;-82
2023/03/17 10:20:10;;;;;;;2.70;2.00;;;;;;;;;;4975146;28;20560;-82
2023/03/17 10:23:18;;;;;;;3.00;2.00;;;;;;;;;;4975077;28;20199;-82
2023/03/17 10:26:31;;;;;;;4.70;2.23;;;;;;;;;;4964019;28;20199;-81
2023/03/17 10:29:35;;;;;;;5.27;2.17;;;;;;;;;;4974795;28;20179;-82
2023/03/17 10:32:40;;;;;;;3.53;2.20;;;;;;;;;;4975014;28;20211;-83
2023/03/17 10:35:46;;;;;;;3.53;2.50;;;;;;;;;;4964692;28;20520;-83
2023/03/17 10:38:52;;;;;;;4.03;1.80;;;;;;;;;;4977023;28;20175;-83
2023/03/17 10:42:34;;;;;;;3.60;1.80;;;;;;;;;;4967318;28;20521;-83
2023/03/17 10:45:46;;;;;;;3.10;1.90;;;;;;;;;;4948170;28;20176;-83
2023/03/17 10:48:55;;;;;;;2.80;1.87;;;;;;;;;;4977366;28;20179;-79
2023/03/17 10:51:59;;;;;;;2.83;1.97;;;;;;;;;;4977225;28;20636;-80
2023/03/17 10:55:05;;;;;;;3.67;1.90;;;;;;;;;;4968410;28;20552;-81
2023/03/17 10:58:21;;;;;;;4.43;2.10;;;;;;;;;;4975321;28;20182;-82
2023/03/17 11:01:36;;;;;;;6.13;4.17;;;;;;;;;;4986377;28;20225;-81
2023/03/17 11:04:42;;;;;;;4.40;3.00;;;;;;;;;;4994106;28;20182;-82
2023/03/17 11:07:46;;;;;;;3.97;2.47;;;;;;;;;;4985549;28;20194;-82
2023/03/17 11:10:55;;;;;;;5.97;3.07;;;;;;;;;;4968119;28;20221;-81
2023/03/17 11:14:27;;;;;;;5.83;2.10;;;;;;;;;;5007567;23;20226;-85
2023/03/17 12:58:34;;;;;;;2.13;1.43;;;;;;;;;;4984024;28;20203;-82
2023/03/17 13:01:54;;;;;;;5.37;1.77;;;;;;;;;;4959009;28;20620;-82
2023/03/17 13:05:00;;;;;;;2.80;1.50;;;;;;;;;;4972461;28;20218;-87
2023/03/17 13:08:07;;;;;;;3.47;1.47;;;;;;;;;;4944145;28;20187;-80
2023/03/17 13:11:50;;;;;;;2.63;1.50;;;;;;;;;;4978854;28;20179;-85
2023/03/17 13:14:57;;;;;;;1.53;1.40;;;;;;;;;;4978582;28;20675;-84
2023/03/17 13:18:14;;;;;;;3.37;1.60;;;;;;;;;;4956466;28;20175;-84
2023/03/17 13:21:22;;;;;;;2.67;1.67;;;;;;;;;;4978973;28;20191;-84
2023/03/17 13:24:45;;;;;;;4.90;1.60;;;;;;;;;;4978885;28;20218;-84
2023/03/17 13:27:50;;;;;;;1.40;1.30;;;;;;;;;;4968400;28;20187;-83
2023/03/17 13:31:08;;;;;;;4.93;1.63;;;;;;;;;;4980418;28;20529;-84
2023/03/17 13:34:14;;;;;;;1.57;1.47;;;;;;;;;;4978177;28;20226;-84
2023/03/17 13:37:30;;;;;;;3.23;1.67;;;;;;;;;;4978757;28;20183;-84
2023/03/17 13:41:00;;;;;;;2.20;1.47;;;;;;;;;;4956708;28;20628;-84
2023/03/17 13:44:46;;;;;;;2.80;1.70;;;;;;;;;;4940219;29;20561;-84
2023/03/17 13:47:51;;;;;;;2.07;1.40;;;;;;;;;;4959655;29;20542;-84
2023/03/17 13:50:58;;;;;;;2.40;1.73;;;;;;;;;;4960171;29;20179;-83
2023/03/17 13:54:33;;;;;;;2.93;1.70;;;;;;;;;;4958497;28;20231;-83
2023/03/17 13:57:38;;;;;;;3.20;1.17;;;;;;;;;;4958788;29;20516;-84
2023/03/17 14:00:45;;;;;;;2.47;1.43;;;;;;;;;;4939116;29;20203;-84
2023/03/17 14:03:52;;;;;;;4.17;1.60;;;;;;;;;;4964849;29;20219;-84
2023/03/17 14:07:04;;;;;;;4.50;1.87;;;;;;;;;;4962722;29;20183;-83
2023/03/17 14:10:16;;;;;;;2.30;1.40;;;;;;;;;;4951676;29;20195;-85
2023/03/17 14:13:27;;;;;;;2.10;1.60;;;;;;;;;;4960138;29;20239;-84
2023/03/17 14:16:35;;;;;;;2.40;1.77;;;;;;;;;;4935850;29;20184;-84
2023/03/17 14:20:06;;;;;;;2.10;1.60;;;;;;;;;;4970656;28;20629;-84
2023/03/17 14:23:11;;;;;;;3.63;1.60;;;;;;;;;;4959875;28;20222;-84
2023/03/17 14:26:15;;;;;;;3.07;1.50;;;;;;;;;;4947951;29;20180;-85
2023/03/17 14:29:28;;;;;;;1.77;1.40;;;;;;;;;;4960401;29;20180;-84
2023/03/17 14:32:32;;;;;;;4.07;1.83;;;;;;;;;;4959277;28;20279;-83
2023/03/17 14:35:41;;;;;;;2.20;1.67;;;;;;;;;;4958435;29;20184;-84
2023/03/17 14:38:54;;;;;;;2.60;1.80;;;;;;;;;;4959631;28;20179;-84
2023/03/17 14:42:02;;;;;;;8.33;2.20;;;;;;;;;;4936512;29;20199;-84
2023/03/17 14:45:17;;;;;;;3.60;2.20;;;;;;;;;;4945074;29;20223;-84
2023/03/17 14:48:26;;;;;;;3.17;1.83;;;;;;;;;;4935573;29;20530;-85
2023/03/17 14:51:36;;;;;;;3.63;2.03;;;;;;;;;;4958163;29;20183;-84
2023/03/17 14:54:40;;;;;;;3.93;1.83;;;;;;;;;;4935664;29;20266;-85
2023/03/17 14:57:50;;;;;;;10.13;2.17;;;;;;;;;;4947370;29;20187;-85
2023/03/17 15:01:01;;;;;;;7.23;1.60;;;;;;;;;;4955672;29;20203;-85
2023/03/17 15:04:26;;;;;;;8.67;1.97;;;;;;;;;;4973562;28;20215;-84
2023/03/17 15:07:41;;;;;;;1.73;1.47;;;;;;;;;;4950070;29;20188;-85
2023/03/17 15:10:46;;;;;;;2.57;1.80;;;;;;;;;;4958433;29;20180;-85
2023/03/17 15:13:55;;;;;;;3.33;1.33;;;;;;;;;;4933854;29;20224;-85
2023/03/17 15:17:05;;;;;;;2.67;1.60;;;;;;;;;;4965748;28;20199;-85
2023/03/17 15:20:17;;;;;;;5.30;1.87;;;;;;;;;;4933387;29;20187;-86
2023/03/17 15:23:24;;;;;;;2.33;1.77;;;;;;;;;;4956834;29;20223;-85
2023/03/17 15:26:41;;;;;;;2.53;1.50;;;;;;;;;;4956869;29;20187;-86
2023/03/17 15:29:46;;;;;;;2.57;1.57;;;;;;;;;;4944326;29;20180;-85
2023/03/17 15:33:02;;;;;;;3.80;2.10;;;;;;;;;;4935617;29;20199;-82
2023/03/17 15:36:14;;;;;;;2.43;1.43;;;;;;;;;;4955025;29;20192;-86
2023/03/17 15:39:18;;;;;;;2.43;1.73;;;;;;;;;;4933934;29;20514;-86
2023/03/17 15:42:26;;;;;;;2.53;1.93;;;;;;;;;;4933170;29;20629;-86
2023/03/17 15:45:30;;;;;;;2.67;1.50;;;;;;;;;;4954309;29;20187;-86
2023/03/17 15:48:37;;;;;;;3.73;2.33;;;;;;;;;;4943721;29;20188;-86
2023/03/17 15:51:42;;;;;;;3.00;1.87;;;;;;;;;;4944548;29;20541;-86
2023/03/17 15:54:47;;;;;;;3.57;2.20;;;;;;;;;;4944281;29;20227;-86
2023/03/17 15:57:51;;;;;;;3.40;2.17;;;;;;;;;;4943827;29;20199;-85
2023/03/17 16:00:56;;;;;;;4.87;2.43;;;;;;;;;;4932053;29;20203;-86
2023/03/17 16:04:01;;;;;;;2.37;2.03;;;;;;;;;;4954061;28;20212;-89
2023/03/17 16:07:11;;;;;;;6.13;1.80;;;;;;;;;;4932050;29;20175;-86
2023/03/17 16:10:24;;;;;;;2.00;1.70;;;;;;;;;;4945861;29;20187;-86
2023/03/17 16:13:28;;;;;;;2.63;1.70;;;;;;;;;;4935510;29;20230;-86
2023/03/17 16:16:42;;;;;;;2.40;1.93;;;;;;;;;;4946327;29;20179;-86
2023/03/17 16:19:47;;;;;;;4.47;2.00;;;;;;;;;;4946774;29;20184;-86
2023/03/17 16:22:54;;;;;;;2.73;1.90;;;;;;;;;;4935096;29;20180;-86
2023/03/17 16:25:58;;;;;;;2.00;1.80;;;;;;;;;;4935152;29;20184;-86
2023/03/17 16:29:10;;;;;;;2.63;1.77;;;;;;;;;;4957719;28;20613;-88
2023/03/17 16:32:14;;;;;;;3.20;1.90;;;;;;;;;;4945979;29;20183;-88
2023/03/17 16:35:21;;;;;;;3.00;1.80;;;;;;;;;;4957078;28;20672;-87
2023/03/17 16:38:28;;;;;;;2.43;1.70;;;;;;;;;;4946162;29;20542;-86
2023/03/17 16:41:33;;;;;;;3.63;2.13;;;;;;;;;;4945757;29;20183;-88
2023/03/17 16:44:37;;;;;;;4.13;1.97;;;;;;;;;;4945610;29;20212;-89
2023/03/17 16:47:41;;;;;;;5.30;3.37;;;;;;;;;;4934776;29;20179;-86
2023/03/17 16:50:46;;;;;;;4.90;2.00;;;;;;;;;;4956812;29;20180;-88
2023/03/17 16:53:50;;;;;;;4.03;2.20;;;;;;;;;;4956510;28;20695;-89
2023/03/17 16:56:54;;;;;;;3.40;1.90;;;;;;;;;;4934706;29;20184;-87
2023/03/17 16:59:59;;;;;;;4.17;2.00;;;;;;;;;;4945865;29;20203;-86
2023/03/17 17:03:03;;;;;;;2.53;1.80;;;;;;;;;;4956281;28;20223;-88
2023/03/17 17:06:09;;;;;;;3.23;1.90;;;;;;;;;;4956764;29;20180;-88
2023/03/17 17:09:13;;;;;;;3.83;2.10;;;;;;;;;;4956414;29;20518;-85
2023/03/17 17:12:18;;;;;;;4.10;2.00;;;;;;;;;;4956447;29;20175;-86
2023/03/17 17:15:23;;;;;;;3.23;1.63;;;;;;;;;;4986039;23;20231;-81
2023/03/17 17:18:27;;;;;;;3.67;1.60;;;;;;;;;;4964047;28;20182;-82
2023/03/17 17:21:32;;;;;;;4.57;1.70;;;;;;;;;;4942155;28;20199;-82
2023/03/17 17:24:36;;;;;;;5.70;1.50;;;;;;;;;;4933617;29;20215;-81
2023/03/17 17:27:43;;;;;;;2.60;1.80;;;;;;;;;;4955697;29;20188;-81
2023/03/17 17:30:49;;;;;;;2.87;1.70;;;;;;;;;;4944612;29;20180;-81
2023/03/17 17:33:53;;;;;;;4.57;2.00;;;;;;;;;;4944361;28;20223;-81
2023/03/17 17:36:57;;;;;;;4.53;2.70;;;;;;;;;;4944682;29;20191;-81
2023/03/17 17:40:02;;;;;;;2.67;1.87;;;;;;;;;;4944917;29;20179;-82
2023/03/17 17:43:08;;;;;;;4.47;3.10;;;;;;;;;;4956321;29;20636;-82
2023/03/17 17:46:22;;;;;;;4.17;2.30;;;;;;;;;;4955169;29;20176;-82
2023/03/17 17:49:26;;;;;;;4.30;2.30;;;;;;;;;;4955586;29;20188;-82
2023/03/17 17:52:30;;;;;;;3.80;1.80;;;;;;;;;;4944387;29;20183;-82
2023/03/17 17:55:34;;;;;;;4.00;1.97;;;;;;;;;;4944011;29;20227;-81
2023/03/17 17:58:39;;;;;;;3.40;1.60;;;;;;;;;;4944377;29;20637;-82
2023/03/17 18:01:43;;;;;;;3.23;1.43;;;;;;;;;;4962571;29;20184;-83
2023/03/17 18:04:47;;;;;;;3.07;1.50;;;;;;;;;;4958245;29;20553;-83
2023/03/17 18:07:51;;;;;;;6.53;1.70;;;;;;;;;;4936520;29;20559;-82
2023/03/17 18:10:56;;;;;;;2.97;1.60;;;;;;;;;;4936507;29;20184;-82
2023/03/17 18:14:00;;;;;;;2.13;1.70;;;;;;;;;;4946613;28;20222;-82
2023/03/17 18:17:04;;;;;;;2.80;1.80;;;;;;;;;;4936138;29;20632;-82
2023/03/17 18:20:11;;;;;;;3.80;2.00;;;;;;;;;;4957737;29;20189;-82
2023/03/17 18:23:16;;;;;;;2.70;1.80;;;;;;;;;;4935741;29;20184;-82
2023/03/17 18:26:21;;;;;;;3.53;2.00;;;;;;;;;;4957207;29;20175;-82
2023/03/17 18:29:25;;;;;;;3.37;1.90;;;;;;;;;;4946488;29;20179;-82
2023/03/17 18:32:32;;;;;;;2.37;2.10;;;;;;;;;;4944222;29;20569;-82
2023/03/17 18:35:36;;;;;;;3.83;2.20;;;;;;;;;;4932779;29;20223;-81
2023/03/17 18:38:40;;;;;;;4.93;2.90;;;;;;;;;;4955873;29;20187;-82
2023/03/17 18:41:44;;;;;;;5.97;2.07;;;;;;;;;;4932343;29;20196;-81
2023/03/17 18:44:48;;;;;;;4.23;2.50;;;;;;;;;;4932709;29;20215;-81
2023/03/17 18:47:52;;;;;;;3.50;2.30;;;;;;;;;;4955227;29;20191;-81
2023/03/17 18:50:57;;;;;;;3.70;2.23;;;;;;;;;;4943607;29;20179;-81
2023/03/17 18:54:02;;;;;;;4.27;2.60;;;;;;;;;;4954129;28;20223;-81
2023/03/17 18:57:06;;;;;;;3.83;2.40;;;;;;;;;;4932595;29;20195;-81
2023/03/17 19:00:11;;;;;;;3.97;2.10;;;;;;;;;;4921695;29;20199;-81
2023/03/17 19:03:17;;;;;;;4.27;2.07;;;;;;;;;;4932510;29;20199;-82
2023/03/17 19:06:22;;;;;;;3.17;1.87;;;;;;;;;;4943584;29;20179;-82
2023/03/17 19:09:26;;;;;;;5.57;2.00;;;;;;;;;;4954105;29;20664;-82
2023/03/17 19:12:30;;;;;;;2.30;1.90;;;;;;;;;;4943211;29;20203;-81
2023/03/17 19:15:34;;;;;;;6.23;2.03;;;;;;;;;;4942779;29;20223;-81
2023/03/17 19:18:40;;;;;;;3.30;2.30;;;;;;;;;;4932365;29;20184;-81
2023/03/17 19:21:45;;;;;;;5.50;2.03;;;;;;;;;;4943588;29;20183;-81
2023/03/17 19:24:49;;;;;;;2.70;2.20;;;;;;;;;;4954064;29;20211;-81
2023/03/17 19:27:54;;;;;;;6.00;2.23;;;;;;;;;;4942962;29;20199;-82
2023/03/17 19:30:58;;;;;;;3.20;2.00;;;;;;;;;;4954522;29;20188;-82
2023/03/17 19:34:02;;;;;;;3.00;2.20;;;;;;;;;;4942883;28;20231;-81
2023/03/17 19:37:06;;;;;;;3.47;2.30;;;;;;;;;;4942848;29;20188;-81
2023/03/17 19:40:12;;;;;;;4.30;2.37;;;;;;;;;;4932134;29;20191;-81
2023/03/17 19:43:16;;;;;;;3.77;2.30;;;;;;;;;;4943117;28;20191;-81
2023/03/17 19:46:20;;;;;;;3.43;2.37;;;;;;;;;;4957680;29;20199;-82
2023/03/17 19:49:24;;;;;;;3.03;2.67;;;;;;;;;;4958711;29;20203;-82
2023/03/17 19:52:29;;;;;;;5.07;2.90;;;;;;;;;;4944378;29;20180;-82
2023/03/17 19:55:33;;;;;;;3.97;2.23;;;;;;;;;;4939575;29;20223;-82
2023/03/17 19:58:38;;;;;;;3.87;2.60;;;;;;;;;;4950306;29;20187;-82
2023/03/17 20:01:42;;;;;;;2.80;2.20;;;;;;;;;;4950268;29;20569;-82
2023/03/17 20:04:47;;;;;;;5.37;2.20;;;;;;;;;;4938960;29;20684;-82
2023/03/17 20:07:51;;;;;;;4.43;2.13;;;;;;;;;;4949253;29;20183;-82
2023/03/17 20:10:56;;;;;;;4.90;2.40;;;;;;;;;;4937675;29;20199;-82
2023/03/17 20:14:01;;;;;;;3.47;2.17;;;;;;;;;;4947907;28;20231;-82
2023/03/17 20:17:05;;;;;;;4.27;2.43;;;;;;;;;;4959429;29;20175;-82
2023/03/17 20:20:10;;;;;;;3.70;2.40;;;;;;;;;;4959298;29;20191;-82
2023/03/17 20:23:15;;;;;;;6.40;2.53;;;;;;;;;;4946457;29;20641;-82